createdAt,value
2024-04-13T00:02:55.284Z,5.05
2024-04-13T00:05:58.468Z,5.02
2024-04-13T00:09:02.121Z,4.81
2024-04-13T00:12:06.478Z,4.74
2024-04-13T00:15:11.301Z,4.84
2024-04-13T00:18:14.661Z,4.78
2024-04-13T00:21:18.197Z,5.04
2024-04-13T00:24:22.345Z,5.25
2024-04-13T00:27:26.112Z,5.66
2024-04-13T00:30:30.251Z,5.97
2024-04-13T00:33:35.033Z,6.13
2024-04-13T00:36:38.241Z,6.34
2024-04-13T00:39:42.028Z,6.30
2024-04-13T00:42:45.592Z,6.01
2024-04-13T00:45:50.670Z,5.79
2024-04-13T00:48:56.020Z,5.51
2024-04-13T00:52:00.952Z,5.28
2024-04-13T00:55:04.932Z,5.15
2024-04-13T00:58:09.149Z,5.18
2024-04-13T01:01:15.759Z,5.44
2024-04-13T01:04:23.770Z,5.78
2024-04-13T01:07:27.671Z,5.78
2024-04-13T01:10:31.293Z,5.85
2024-04-13T01:13:36.078Z,6.01
2024-04-13T01:16:40.662Z,6.04
2024-04-13T01:19:44.904Z,6.19
2024-04-13T01:22:49.082Z,6.63
2024-04-13T01:25:54.190Z,7.05
2024-04-13T01:28:58.082Z,7.28
2024-04-13T01:32:02.166Z,7.47
2024-04-13T01:35:13.641Z,7.67
2024-04-13T01:38:16.793Z,7.84
2024-04-13T01:41:21.199Z,7.98
2024-04-13T01:44:24.199Z,8.11
2024-04-13T01:47:28.796Z,8.15
2024-04-13T01:50:31.894Z,8.24
2024-04-13T01:53:35.660Z,8.39
2024-04-13T01:56:39.150Z,8.54
2024-04-13T01:59:43.732Z,8.64
2024-04-13T02:02:47.629Z,8.85
2024-04-13T02:05:51.900Z,8.85
2024-04-13T02:08:55.745Z,8.71
2024-04-13T02:11:59.490Z,8.48
2024-04-13T02:15:03.703Z,8.33
2024-04-13T02:18:08.037Z,8.38
2024-04-13T02:21:14.171Z,8.38
2024-04-13T02:24:18.476Z,8.33
2024-04-13T02:27:22.911Z,8.19
2024-04-13T02:30:26.590Z,8.29
2024-04-13T02:33:30.528Z,8.42
2024-04-13T02:36:34.495Z,8.61
2024-04-13T02:39:39.502Z,8.73
2024-04-13T02:42:43.378Z,8.67
2024-04-13T02:45:47.284Z,8.50
2024-04-13T02:48:51.000Z,8.88
2024-04-13T02:51:54.153Z,9.04
2024-04-13T02:54:58.149Z,9.12
2024-04-13T02:58:01.544Z,9.32
2024-04-13T03:01:06.363Z,9.53
2024-04-13T03:04:09.958Z,9.66
2024-04-13T03:07:14.382Z,10.19
2024-04-13T03:10:18.497Z,10.48
2024-04-13T03:13:22.427Z,10.92
2024-04-13T03:16:25.996Z,11.03
2024-04-13T03:19:29.533Z,11.39
2024-04-13T03:22:35.348Z,11.59
2024-04-13T03:25:40.488Z,12.07
2024-04-13T03:28:44.915Z,12.44
2024-04-13T03:31:49.701Z,12.88
2024-04-13T03:34:53.380Z,13.26
2024-04-13T03:37:59.350Z,13.21
2024-04-13T03:41:10.906Z,13.62
2024-04-13T03:44:14.455Z,13.98
2024-04-13T03:47:18.345Z,14.19
2024-04-13T03:50:23.103Z,14.24
2024-04-13T03:53:26.159Z,14.40
2024-04-13T03:56:30.505Z,15.07
2024-04-13T03:59:34.030Z,15.51
2024-04-13T04:02:37.809Z,15.67
2024-04-13T04:05:41.563Z,15.78
2024-04-13T04:08:45.449Z,15.63
2024-04-13T04:11:49.882Z,15.40
2024-04-13T04:14:53.483Z,15.37
2024-04-13T04:17:57.617Z,15.36
2024-04-13T04:21:01.932Z,15.67
2024-04-13T04:24:06.048Z,15.98
2024-04-13T04:27:10.107Z,15.95
2024-04-13T04:30:14.948Z,16.02
2024-04-13T04:33:18.729Z,15.53
2024-04-13T04:36:22.558Z,15.33
2024-04-13T04:39:26.982Z,15.22
2024-04-13T04:42:33.599Z,14.99
2024-04-13T04:45:39.146Z,14.98
2024-04-13T04:48:43.747Z,14.48
2024-04-13T04:51:47.495Z,14.37
2024-04-13T04:54:51.232Z,14.61
2024-04-13T04:57:54.344Z,14.67
2024-04-13T05:00:57.546Z,14.63
2024-04-13T05:04:01.774Z,14.65
2024-04-13T05:07:05.289Z,14.84
2024-04-13T05:10:10.876Z,15.13
2024-04-13T05:13:16.216Z,15.60
2024-04-13T05:16:20.633Z,15.68
2024-04-13T05:19:24.587Z,15.82
2024-04-13T05:22:28.920Z,16.01
2024-04-13T05:25:34.097Z,16.26
2024-04-13T05:28:37.907Z,16.68
2024-04-13T05:31:41.521Z,16.71
2024-04-13T05:34:44.570Z,16.67
2024-04-13T05:37:48.625Z,17.01
2024-04-13T05:40:53.978Z,16.98
2024-04-13T05:43:57.868Z,17.29
2024-04-13T05:47:01.522Z,17.49
2024-04-13T05:50:05.612Z,17.60
2024-04-13T05:53:09.985Z,17.83
2024-04-13T05:56:13.932Z,18.04
2024-04-13T05:59:18.596Z,18.04
2024-04-13T06:02:28.019Z,18.22
2024-04-13T06:05:32.518Z,18.34
2024-04-13T06:08:36.612Z,18.49
2024-04-13T06:11:40.149Z,18.53
2024-04-13T06:14:44.231Z,18.16
2024-04-13T06:17:48.690Z,18.08
2024-04-13T06:20:52.615Z,18.07
2024-04-13T06:23:56.458Z,18.09
2024-04-13T06:27:00.565Z,18.22
2024-04-13T06:30:04.282Z,18.25
2024-04-13T06:33:08.206Z,18.45
2024-04-13T06:36:12.085Z,18.56
2024-04-13T06:39:16.379Z,18.41
2024-04-13T06:42:21.004Z,18.31
2024-04-13T06:45:24.763Z,18.25
2024-04-13T06:48:28.999Z,18.12
2024-04-13T06:51:32.657Z,17.84
2024-04-13T06:54:37.053Z,17.90
2024-04-13T06:57:41.331Z,18.14
2024-04-13T07:00:45.678Z,18.42
2024-04-13T07:03:48.879Z,18.45
2024-04-13T07:06:52.114Z,18.46
2024-04-13T07:09:56.146Z,18.56
2024-04-13T07:12:59.450Z,18.81
2024-04-13T07:16:03.340Z,19.08
2024-04-13T07:19:06.866Z,19.15
2024-04-13T07:22:10.822Z,19.39
2024-04-13T07:25:14.328Z,19.66
2024-04-13T07:28:17.359Z,20.44
2024-04-13T07:31:21.011Z,21.22
2024-04-13T07:34:24.764Z,21.63
2024-04-13T07:37:28.497Z,22.00
2024-04-13T07:40:32.451Z,22.20
2024-04-13T07:43:36.016Z,21.79
2024-04-13T07:46:39.747Z,21.37
2024-04-13T07:49:44.162Z,20.85
2024-04-13T07:52:48.753Z,20.52
2024-04-13T07:55:53.100Z,20.03
2024-04-13T07:58:56.973Z,19.63
2024-04-13T08:02:00.532Z,19.51
2024-04-13T08:05:03.775Z,19.19
2024-04-13T08:08:07.318Z,18.73
2024-04-13T08:11:11.229Z,18.18
2024-04-13T08:14:16.513Z,17.98
2024-04-13T08:17:28.321Z,17.86
2024-04-13T08:20:32.518Z,17.69
2024-04-13T08:23:36.263Z,17.57
2024-04-13T08:26:39.756Z,17.35
2024-04-13T08:29:42.904Z,17.15
2024-04-13T08:32:50.394Z,16.85
2024-04-13T08:36:03.583Z,16.68
2024-04-13T08:39:12.356Z,16.52
2024-04-13T08:42:21.557Z,16.43
2024-04-13T08:45:27.293Z,16.29
2024-04-13T08:48:31.936Z,16.13
2024-04-13T08:51:38.511Z,15.92
2024-04-13T08:54:42.562Z,15.67
2024-04-13T08:57:47.976Z,15.47
2024-04-13T09:00:56.329Z,15.33
2024-04-13T09:04:01.080Z,15.20
2024-04-13T09:07:05.562Z,15.05
2024-04-13T09:10:12.163Z,14.92
2024-04-13T09:13:16.224Z,14.79
2024-04-13T09:16:21.884Z,14.72
2024-04-13T09:19:26.162Z,14.65
2024-04-13T09:22:31.042Z,14.58
2024-04-13T09:25:35.096Z,14.48
2024-04-13T09:28:49.322Z,14.40
2024-04-13T09:31:52.631Z,14.31
2024-04-13T09:34:57.595Z,14.34
2024-04-13T09:38:02.022Z,14.19
2024-04-13T09:41:06.050Z,14.08
2024-04-13T09:44:10.978Z,14.08
2024-04-13T09:47:15.761Z,14.03
2024-04-13T09:50:20.108Z,14.03
2024-04-13T09:53:24.325Z,13.98
2024-04-13T09:56:28.630Z,13.92
2024-04-13T09:59:35.617Z,13.90
2024-04-13T10:02:39.195Z,13.72
2024-04-13T10:05:45.903Z,13.59
2024-04-13T10:08:50.407Z,13.48
2024-04-13T10:11:57.649Z,13.46
2024-04-13T10:15:03.030Z,13.37
2024-04-13T10:18:08.372Z,13.36
2024-04-13T10:21:14.716Z,13.34
2024-04-13T10:24:19.506Z,13.27
2024-04-13T10:27:25.144Z,13.28
2024-04-13T10:30:32.055Z,13.20
2024-04-13T10:33:35.347Z,13.13
2024-04-13T10:36:38.686Z,13.02
2024-04-13T10:39:41.919Z,12.76
2024-04-13T10:42:46.841Z,12.56
2024-04-13T10:46:00.426Z,12.41
2024-04-13T10:49:06.504Z,12.21
2024-04-13T10:52:13.204Z,12.01
2024-04-13T10:55:19.794Z,11.94
2024-04-13T10:58:23.469Z,11.93
2024-04-13T11:01:26.863Z,11.80
2024-04-13T11:04:31.332Z,11.65
2024-04-13T11:07:36.991Z,11.49
2024-04-13T11:10:48.083Z,11.38
2024-04-13T11:13:51.850Z,11.32
2024-04-13T11:16:55.670Z,11.25
2024-04-13T11:20:00.757Z,11.17
2024-04-13T11:23:05.067Z,11.03
2024-04-13T11:26:10.072Z,11.01
2024-04-13T11:29:14.113Z,10.93
2024-04-13T11:32:19.247Z,10.83
2024-04-13T11:35:23.367Z,10.80
2024-04-13T11:38:31.382Z,10.77
2024-04-13T11:41:35.216Z,10.73
2024-04-13T11:44:42.113Z,10.60
2024-04-13T11:47:46.193Z,10.53
2024-04-13T11:50:57.505Z,10.46
2024-04-13T11:54:01.603Z,10.38
2024-04-13T11:57:15.183Z,10.31
2024-04-13T12:00:20.066Z,10.24
2024-04-13T12:03:24.465Z,10.14
2024-04-13T12:06:32.121Z,10.08
2024-04-13T12:09:35.755Z,10.04
2024-04-13T12:12:40.086Z,10.00
2024-04-13T12:15:44.827Z,9.87
2024-04-13T12:18:48.612Z,9.83
2024-04-13T12:21:52.937Z,9.76
2024-04-13T12:24:56.235Z,9.74
2024-04-13T12:28:01.593Z,9.73
2024-04-13T12:31:05.923Z,9.72
2024-04-13T12:34:10.045Z,9.67
2024-04-13T12:37:14.068Z,9.63
2024-04-13T12:40:19.818Z,9.57
2024-04-13T12:43:23.380Z,9.49
2024-04-13T12:46:26.637Z,9.43
2024-04-13T12:49:29.893Z,9.40
2024-04-13T12:52:33.763Z,9.34
2024-04-13T12:55:37.041Z,9.36
2024-04-13T12:58:41.245Z,9.34
2024-04-13T13:01:46.397Z,9.31
2024-04-13T13:04:49.633Z,9.31
2024-04-13T13:07:53.616Z,9.28
2024-04-13T13:10:56.820Z,9.29
2024-04-13T13:14:00.720Z,9.31
2024-04-13T13:17:05.274Z,9.25
2024-04-13T13:20:10.441Z,9.26
2024-04-13T13:23:14.380Z,9.21
2024-04-13T13:26:17.989Z,9.19
2024-04-13T13:29:21.069Z,9.22
2024-04-13T13:32:26.168Z,9.19
2024-04-13T13:35:29.686Z,9.18
2024-04-13T13:38:33.383Z,9.16
2024-04-13T13:41:42.273Z,9.19
2024-04-13T13:44:45.149Z,9.22
2024-04-13T13:47:49.866Z,9.16
2024-04-13T13:50:53.387Z,9.15
2024-04-13T13:53:57.237Z,9.11
2024-04-13T13:57:00.942Z,9.01
2024-04-13T14:00:05.859Z,8.94
2024-04-13T14:03:12.537Z,8.84
2024-04-13T14:06:16.435Z,8.76
2024-04-13T14:09:19.858Z,8.66
2024-04-13T14:12:23.672Z,8.57
2024-04-13T14:15:26.785Z,8.53
2024-04-13T14:18:30.021Z,8.40
2024-04-13T14:21:37.827Z,8.42
2024-04-13T14:24:42.139Z,8.26
2024-04-13T14:27:45.569Z,8.09
2024-04-13T14:30:50.109Z,8.02
2024-04-13T14:33:54.452Z,7.93
2024-04-13T14:36:58.812Z,7.87
2024-04-13T14:40:02.494Z,7.84
2024-04-13T14:43:07.600Z,7.85
2024-04-13T14:46:11.699Z,7.87
2024-04-13T14:49:16.342Z,7.83
2024-04-13T14:52:20.282Z,7.87
2024-04-13T14:55:24.313Z,7.87
2024-04-13T14:58:28.123Z,7.87
2024-04-13T15:01:32.141Z,7.87
2024-04-13T15:04:36.104Z,7.85
2024-04-13T15:07:40.219Z,7.84
2024-04-13T15:10:48.269Z,7.83
2024-04-13T15:13:52.800Z,7.75
2024-04-13T15:16:56.152Z,7.74
2024-04-13T15:20:00.706Z,7.80
2024-04-13T15:23:05.113Z,7.71
2024-04-13T15:26:09.157Z,7.74
2024-04-13T15:29:13.044Z,7.70
2024-04-13T15:32:17.453Z,7.71
2024-04-13T15:35:21.584Z,7.69
2024-04-13T15:38:25.873Z,7.66
2024-04-13T15:41:29.689Z,7.66
2024-04-13T15:44:33.978Z,7.67
2024-04-13T15:47:38.034Z,7.63
2024-04-13T15:50:43.053Z,7.73
2024-04-13T15:53:46.577Z,7.80
2024-04-13T15:56:50.838Z,7.85
2024-04-13T15:59:55.192Z,7.87
2024-04-13T16:02:59.536Z,7.84
2024-04-13T16:06:06.897Z,7.70
2024-04-13T16:09:11.735Z,7.56
2024-04-13T16:12:15.618Z,7.46
2024-04-13T16:15:19.593Z,7.22
2024-04-13T16:18:23.533Z,7.16
2024-04-13T16:21:27.481Z,7.15
2024-04-13T16:24:31.290Z,7.26
2024-04-13T16:27:35.315Z,7.30
2024-04-13T16:30:39.418Z,7.23
2024-04-13T16:33:43.479Z,7.23
2024-04-13T16:36:48.348Z,7.15
2024-04-13T16:39:52.422Z,6.99
2024-04-13T16:42:57.770Z,6.88
2024-04-13T16:46:01.613Z,6.83
2024-04-13T16:49:05.621Z,6.76
2024-04-13T16:52:09.771Z,6.76
2024-04-13T16:55:13.904Z,6.80
2024-04-13T16:58:17.893Z,6.83
2024-04-13T17:01:21.814Z,6.81
2024-04-13T17:04:25.835Z,6.81
2024-04-13T17:07:29.625Z,6.87
2024-04-13T17:10:34.069Z,6.83
2024-04-13T17:13:37.972Z,6.80
2024-04-13T17:16:41.811Z,6.77
2024-04-13T17:19:46.372Z,6.78
2024-04-13T17:22:50.666Z,6.73
2024-04-13T17:25:54.219Z,6.69
2024-04-13T17:28:58.456Z,6.67
2024-04-13T17:32:01.940Z,6.58
2024-04-13T17:35:06.792Z,6.57
2024-04-13T17:38:10.647Z,6.54
2024-04-13T17:41:15.630Z,6.49
2024-04-13T17:44:19.538Z,6.49
2024-04-13T17:47:23.575Z,6.47
2024-04-13T17:50:27.433Z,6.49
2024-04-13T17:53:31.111Z,6.49
2024-04-13T17:56:36.108Z,6.49
2024-04-13T17:59:40.248Z,6.44
2024-04-13T18:02:44.113Z,6.50
2024-04-13T18:05:48.058Z,6.43
2024-04-13T18:08:51.802Z,6.44
2024-04-13T18:11:55.683Z,6.43
2024-04-13T18:14:59.522Z,6.49
2024-04-13T18:18:03.498Z,6.46
2024-04-13T18:21:07.570Z,6.52
2024-04-13T18:24:13.629Z,6.54
2024-04-13T18:27:17.514Z,6.57
2024-04-13T18:30:21.683Z,6.57
2024-04-13T18:33:25.600Z,6.60
2024-04-13T18:36:29.762Z,6.63
2024-04-13T18:39:34.025Z,6.63
2024-04-13T18:42:37.946Z,6.53
2024-04-13T18:45:41.756Z,6.57
2024-04-13T18:48:45.453Z,6.60
2024-04-13T18:51:49.489Z,6.63
2024-04-13T18:54:53.874Z,6.64
2024-04-13T18:57:57.716Z,6.58
2024-04-13T19:01:09.691Z,6.56
2024-04-13T19:04:13.936Z,6.49
2024-04-13T19:07:18.166Z,6.44
2024-04-13T19:10:21.711Z,6.43
2024-04-13T19:13:25.756Z,6.43
2024-04-13T19:16:29.720Z,6.37
2024-04-13T19:19:34.087Z,6.40
2024-04-13T19:22:37.884Z,6.47
2024-04-13T19:25:41.974Z,6.39
2024-04-13T19:28:45.760Z,6.37
2024-04-13T19:31:49.582Z,6.40
2024-04-13T19:34:53.519Z,6.44
2024-04-13T19:37:57.475Z,6.44
2024-04-13T19:41:01.382Z,6.47
2024-04-13T19:44:06.565Z,6.52
2024-04-13T19:47:10.082Z,6.47
2024-04-13T19:50:15.291Z,6.47
2024-04-13T19:53:18.753Z,6.43
2024-04-13T19:56:22.756Z,6.49
2024-04-13T19:59:26.184Z,6.49
2024-04-13T20:02:30.535Z,6.49
2024-04-13T20:05:37.950Z,6.44
2024-04-13T20:08:46.356Z,6.44
2024-04-13T20:11:50.155Z,6.40
2024-04-13T20:15:12.692Z,6.40
2024-04-13T20:18:35.274Z,6.40
2024-04-13T20:21:39.888Z,6.34
2024-04-13T20:24:43.754Z,6.33
2024-04-13T20:27:47.856Z,6.33
2024-04-13T20:30:52.063Z,6.22
2024-04-13T20:33:55.873Z,6.16
2024-04-13T20:36:59.851Z,6.16
2024-04-13T20:40:04.495Z,6.19
2024-04-13T20:43:10.441Z,6.23
2024-04-13T20:46:13.487Z,6.22
2024-04-13T20:49:17.433Z,6.21
2024-04-13T20:52:21.378Z,6.21
2024-04-13T20:55:25.106Z,6.23
2024-04-13T20:58:29.372Z,6.21
2024-04-13T21:01:33.322Z,6.16
2024-04-13T21:04:37.609Z,6.22
2024-04-13T21:07:41.370Z,6.26
2024-04-13T21:10:45.431Z,6.32
2024-04-13T21:13:48.562Z,6.40
2024-04-13T21:16:52.650Z,6.53
2024-04-13T21:19:57.819Z,6.63
2024-04-13T21:23:01.636Z,6.70
2024-04-13T21:26:05.898Z,6.71
2024-04-13T21:29:09.706Z,6.77
2024-04-13T21:32:13.351Z,6.67
2024-04-13T21:35:17.655Z,6.57
2024-04-13T21:38:21.629Z,6.47
2024-04-13T21:41:25.562Z,6.39
2024-04-13T21:44:30.941Z,6.34
2024-04-13T21:47:35.329Z,6.25
2024-04-13T21:50:39.438Z,6.12
2024-04-13T21:53:43.829Z,6.05
2024-04-13T21:56:47.395Z,5.99
2024-04-13T21:59:51.428Z,5.88
2024-04-13T22:02:54.997Z,5.81
2024-04-13T22:05:58.684Z,5.78
2024-04-13T22:09:01.948Z,5.81
2024-04-13T22:12:06.995Z,5.79
2024-04-13T22:15:14.302Z,5.77
2024-04-13T22:18:20.970Z,5.70
2024-04-13T22:21:24.883Z,5.60
2024-04-13T22:24:29.076Z,5.57
2024-04-13T22:27:32.584Z,5.58
2024-04-13T22:30:37.516Z,5.61
2024-04-13T22:33:40.952Z,5.61
2024-04-13T22:36:44.645Z,5.61
2024-04-13T22:39:48.514Z,5.73
2024-04-13T22:42:52.681Z,5.87
2024-04-13T22:45:56.631Z,5.85
2024-04-13T22:49:04.329Z,5.88
2024-04-13T22:52:10.200Z,5.84
2024-04-13T22:55:13.926Z,5.85
2024-04-13T22:58:17.782Z,5.88
2024-04-13T23:01:22.387Z,5.84
2024-04-13T23:04:26.470Z,5.83
2024-04-13T23:07:30.687Z,5.75
2024-04-13T23:10:34.245Z,5.77
2024-04-13T23:13:38.601Z,5.75
2024-04-13T23:16:42.108Z,5.77
2024-04-13T23:19:46.495Z,5.71
2024-04-13T23:22:52.502Z,5.70
2024-04-13T23:25:56.656Z,5.66
2024-04-13T23:29:00.104Z,5.63
2024-04-13T23:32:04.245Z,5.63
2024-04-13T23:35:08.236Z,5.56
2024-04-13T23:38:12.272Z,5.51
2024-04-13T23:41:16.221Z,5.53
2024-04-13T23:44:20.477Z,5.56
2024-04-13T23:47:23.804Z,5.54
2024-04-13T23:50:28.029Z,5.61
2024-04-13T23:53:32.785Z,5.64
2024-04-13T23:56:39.716Z,5.64
2024-04-13T23:59:43.449Z,5.68
